sensor_id;sensor_type;location;lat;lon;timestamp;P1;durP1;ratioP1;P2;durP2;ratioP2
30723;SDS011;17473;52.286;20.930;2023-03-03T00:01:57;77.00;;;37.80;;
30723;SDS011;17473;52.286;20.930;2023-03-03T00:04:24;78.67;;;38.47;;
30723;SDS011;17473;52.286;20.930;2023-03-03T00:06:51;74.60;;;35.43;;
30723;SDS011;17473;52.286;20.930;2023-03-03T00:09:18;73.23;;;36.57;;
30723;SDS011;17473;52.286;20.930;2023-03-03T00:11:46;72.37;;;36.37;;
30723;SDS011;17473;52.286;20.930;2023-03-03T00:14:21;69.27;;;33.33;;
30723;SDS011;17473;52.286;20.930;2023-03-03T00:16:58;74.93;;;34.13;;
30723;SDS011;17473;52.286;20.930;2023-03-03T00:19:35;66.67;;;34.30;;
30723;SDS011;17473;52.286;20.930;2023-03-03T00:22:06;68.53;;;32.10;;
30723;SDS011;17473;52.286;20.930;2023-03-03T00:24:41;62.67;;;34.07;;
30723;SDS011;17473;52.286;20.930;2023-03-03T00:30:01;66.70;;;34.67;;
30723;SDS011;17473;52.286;20.930;2023-03-03T00:32:43;66.70;;;32.27;;
30723;SDS011;17473;52.286;20.930;2023-03-03T00:35:22;64.73;;;32.23;;
30723;SDS011;17473;52.286;20.930;2023-03-03T00:37:55;62.60;;;31.50;;
30723;SDS011;17473;52.286;20.930;2023-03-03T00:40:35;61.10;;;31.83;;
30723;SDS011;17473;52.286;20.930;2023-03-03T00:43:13;63.50;;;31.47;;
30723;SDS011;17473;52.286;20.930;2023-03-03T00:45:47;67.30;;;30.43;;
30723;SDS011;17473;52.286;20.930;2023-03-03T00:51:29;63.00;;;30.87;;
30723;SDS011;17473;52.286;20.930;2023-03-03T00:54:00;58.67;;;30.10;;
30723;SDS011;17473;52.286;20.930;2023-03-03T00:56:28;61.20;;;29.70;;
30723;SDS011;17473;52.286;20.930;2023-03-03T00:58:55;58.17;;;30.57;;
30723;SDS011;17473;52.286;20.930;2023-03-03T01:01:22;62.60;;;29.70;;
30723;SDS011;17473;52.286;20.930;2023-03-03T01:03:50;54.27;;;29.13;;
30723;SDS011;17473;52.286;20.930;2023-03-03T01:06:18;57.50;;;29.43;;
30723;SDS011;17473;52.286;20.930;2023-03-03T01:08:45;62.37;;;30.77;;
30723;SDS011;17473;52.286;20.930;2023-03-03T01:11:16;65.30;;;32.70;;
30723;SDS011;17473;52.286;20.930;2023-03-03T01:13:49;56.40;;;29.77;;
30723;SDS011;17473;52.286;20.930;2023-03-03T01:16:17;60.23;;;30.23;;
30723;SDS011;17473;52.286;20.930;2023-03-03T01:18:45;59.13;;;29.40;;
30723;SDS011;17473;52.286;20.930;2023-03-03T01:21:12;57.63;;;30.97;;
30723;SDS011;17473;52.286;20.930;2023-03-03T01:23:39;55.60;;;28.20;;
30723;SDS011;17473;52.286;20.930;2023-03-03T01:26:06;59.20;;;30.53;;
30723;SDS011;17473;52.286;20.930;2023-03-03T01:28:34;57.10;;;29.80;;
30723;SDS011;17473;52.286;20.930;2023-03-03T01:31:02;56.73;;;28.40;;
30723;SDS011;17473;52.286;20.930;2023-03-03T01:33:31;58.07;;;29.63;;
30723;SDS011;17473;52.286;20.930;2023-03-03T01:36:00;55.03;;;27.60;;
30723;SDS011;17473;52.286;20.930;2023-03-03T01:38:28;64.17;;;30.63;;
30723;SDS011;17473;52.286;20.930;2023-03-03T01:40:56;50.87;;;27.17;;
30723;SDS011;17473;52.286;20.930;2023-03-03T01:43:25;49.47;;;26.93;;
30723;SDS011;17473;52.286;20.930;2023-03-03T01:53:33;55.47;;;27.70;;
30723;SDS011;17473;52.286;20.930;2023-03-03T01:56:18;49.87;;;27.87;;
30723;SDS011;17473;52.286;20.930;2023-03-03T01:58:48;54.33;;;26.60;;
30723;SDS011;17473;52.286;20.930;2023-03-03T02:01:31;47.30;;;27.93;;
30723;SDS011;17473;52.286;20.930;2023-03-03T02:03:59;53.40;;;27.40;;
30723;SDS011;17473;52.286;20.930;2023-03-03T02:06:27;58.93;;;28.93;;
30723;SDS011;17473;52.286;20.930;2023-03-03T02:09:17;52.70;;;26.63;;
30723;SDS011;17473;52.286;20.930;2023-03-03T02:12:18;51.33;;;27.60;;
30723;SDS011;17473;52.286;20.930;2023-03-03T02:14:48;55.33;;;28.27;;
30723;SDS011;17473;52.286;20.930;2023-03-03T02:17:15;51.97;;;29.53;;
30723;SDS011;17473;52.286;20.930;2023-03-03T02:25:36;60.97;;;28.43;;
30723;SDS011;17473;52.286;20.930;2023-03-03T02:28:19;52.27;;;26.73;;
30723;SDS011;17473;52.286;20.930;2023-03-03T02:30:46;51.50;;;27.50;;
30723;SDS011;17473;52.286;20.930;2023-03-03T02:33:13;55.00;;;27.73;;
30723;SDS011;17473;52.286;20.930;2023-03-03T02:35:41;56.43;;;26.93;;
30723;SDS011;17473;52.286;20.930;2023-03-03T02:38:28;51.60;;;28.10;;
30723;SDS011;17473;52.286;20.930;2023-03-03T02:41:13;55.90;;;28.43;;
30723;SDS011;17473;52.286;20.930;2023-03-03T02:44:22;56.07;;;26.03;;
30723;SDS011;17473;52.286;20.930;2023-03-03T02:46:53;48.90;;;26.97;;
30723;SDS011;17473;52.286;20.930;2023-03-03T02:49:22;59.17;;;28.67;;
30723;SDS011;17473;52.286;20.930;2023-03-03T02:51:53;51.57;;;26.53;;
30723;SDS011;17473;52.286;20.930;2023-03-03T02:54:22;52.30;;;26.97;;
30723;SDS011;17473;52.286;20.930;2023-03-03T02:56:51;51.53;;;27.47;;
30723;SDS011;17473;52.286;20.930;2023-03-03T02:59:18;59.53;;;29.10;;
30723;SDS011;17473;52.286;20.930;2023-03-03T03:01:46;55.83;;;27.87;;
30723;SDS011;17473;52.286;20.930;2023-03-03T03:04:20;61.47;;;27.90;;
30723;SDS011;17473;52.286;20.930;2023-03-03T03:06:51;60.03;;;28.37;;
30723;SDS011;17473;52.286;20.930;2023-03-03T03:09:19;61.43;;;29.60;;
30723;SDS011;17473;52.286;20.930;2023-03-03T03:11:47;57.20;;;28.87;;
30723;SDS011;17473;52.286;20.930;2023-03-03T03:14:15;53.57;;;28.53;;
30723;SDS011;17473;52.286;20.930;2023-03-03T03:16:42;58.53;;;30.10;;
30723;SDS011;17473;52.286;20.930;2023-03-03T03:19:09;53.20;;;28.50;;
30723;SDS011;17473;52.286;20.930;2023-03-03T03:21:36;57.60;;;29.93;;
30723;SDS011;17473;52.286;20.930;2023-03-03T03:24:04;59.50;;;30.40;;
30723;SDS011;17473;52.286;20.930;2023-03-03T03:26:31;53.77;;;29.03;;
30723;SDS011;17473;52.286;20.930;2023-03-03T03:28:58;53.10;;;27.83;;
30723;SDS011;17473;52.286;20.930;2023-03-03T03:31:26;51.60;;;27.63;;
30723;SDS011;17473;52.286;20.930;2023-03-03T03:33:53;55.17;;;27.27;;
30723;SDS011;17473;52.286;20.930;2023-03-03T03:36:20;58.60;;;28.87;;
30723;SDS011;17473;52.286;20.930;2023-03-03T03:38:47;59.57;;;29.83;;
30723;SDS011;17473;52.286;20.930;2023-03-03T03:41:14;59.93;;;28.53;;
30723;SDS011;17473;52.286;20.930;2023-03-03T03:43:42;53.80;;;27.80;;
30723;SDS011;17473;52.286;20.930;2023-03-03T03:46:09;59.03;;;29.13;;
30723;SDS011;17473;52.286;20.930;2023-03-03T03:48:36;48.67;;;27.37;;
30723;SDS011;17473;52.286;20.930;2023-03-03T03:51:03;60.00;;;29.77;;
30723;SDS011;17473;52.286;20.930;2023-03-03T03:53:31;54.20;;;27.93;;
30723;SDS011;17473;52.286;20.930;2023-03-03T03:55:58;60.60;;;30.40;;
30723;SDS011;17473;52.286;20.930;2023-03-03T03:58:25;51.70;;;26.37;;
30723;SDS011;17473;52.286;20.930;2023-03-03T04:00:52;56.93;;;28.87;;
30723;SDS011;17473;52.286;20.930;2023-03-03T04:03:19;55.37;;;29.83;;
30723;SDS011;17473;52.286;20.930;2023-03-03T04:05:47;59.17;;;29.30;;
30723;SDS011;17473;52.286;20.930;2023-03-03T04:08:17;60.90;;;29.23;;
30723;SDS011;17473;52.286;20.930;2023-03-03T04:10:44;61.03;;;28.60;;
30723;SDS011;17473;52.286;20.930;2023-03-03T04:13:11;62.63;;;29.23;;
30723;SDS011;17473;52.286;20.930;2023-03-03T04:15:38;55.53;;;29.00;;
30723;SDS011;17473;52.286;20.930;2023-03-03T04:18:05;56.93;;;29.03;;
30723;SDS011;17473;52.286;20.930;2023-03-03T04:20:32;64.90;;;31.00;;
30723;SDS011;17473;52.286;20.930;2023-03-03T04:23:00;59.90;;;30.57;;
30723;SDS011;17473;52.286;20.930;2023-03-03T04:25:27;59.17;;;30.27;;
30723;SDS011;17473;52.286;20.930;2023-03-03T04:27:54;64.67;;;31.83;;
30723;SDS011;17473;52.286;20.930;2023-03-03T04:30:21;59.97;;;29.37;;
30723;SDS011;17473;52.286;20.930;2023-03-03T04:32:48;62.03;;;29.37;;
30723;SDS011;17473;52.286;20.930;2023-03-03T04:35:15;57.77;;;29.13;;
30723;SDS011;17473;52.286;20.930;2023-03-03T04:37:43;58.73;;;29.57;;
30723;SDS011;17473;52.286;20.930;2023-03-03T04:40:10;57.33;;;28.87;;
30723;SDS011;17473;52.286;20.930;2023-03-03T04:42:37;56.30;;;29.13;;
30723;SDS011;17473;52.286;20.930;2023-03-03T04:45:05;58.53;;;28.40;;
30723;SDS011;17473;52.286;20.930;2023-03-03T04:47:32;63.13;;;31.73;;
30723;SDS011;17473;52.286;20.930;2023-03-03T04:50:00;66.27;;;30.70;;
30723;SDS011;17473;52.286;20.930;2023-03-03T04:52:27;63.80;;;32.30;;
30723;SDS011;17473;52.286;20.930;2023-03-03T04:54:54;64.27;;;32.03;;
30723;SDS011;17473;52.286;20.930;2023-03-03T04:57:21;68.27;;;33.23;;
30723;SDS011;17473;52.286;20.930;2023-03-03T04:59:48;71.47;;;33.83;;
30723;SDS011;17473;52.286;20.930;2023-03-03T05:02:16;70.37;;;33.60;;
30723;SDS011;17473;52.286;20.930;2023-03-03T05:04:43;70.50;;;32.77;;
30723;SDS011;17473;52.286;20.930;2023-03-03T05:07:11;74.17;;;35.47;;
30723;SDS011;17473;52.286;20.930;2023-03-03T05:09:38;71.97;;;35.37;;
30723;SDS011;17473;52.286;20.930;2023-03-03T05:12:05;76.33;;;36.27;;
30723;SDS011;17473;52.286;20.930;2023-03-03T05:14:32;73.47;;;36.00;;
30723;SDS011;17473;52.286;20.930;2023-03-03T05:17:00;72.73;;;35.30;;
30723;SDS011;17473;52.286;20.930;2023-03-03T05:19:29;73.90;;;35.03;;
30723;SDS011;17473;52.286;20.930;2023-03-03T05:21:57;73.40;;;35.33;;
30723;SDS011;17473;52.286;20.930;2023-03-03T05:24:25;79.03;;;36.00;;
30723;SDS011;17473;52.286;20.930;2023-03-03T05:26:52;71.77;;;33.97;;
30723;SDS011;17473;52.286;20.930;2023-03-03T05:29:20;77.03;;;35.57;;
30723;SDS011;17473;52.286;20.930;2023-03-03T05:31:47;80.50;;;37.70;;
30723;SDS011;17473;52.286;20.930;2023-03-03T05:34:15;68.70;;;35.13;;
30723;SDS011;17473;52.286;20.930;2023-03-03T05:36:42;71.77;;;35.70;;
30723;SDS011;17473;52.286;20.930;2023-03-03T05:39:09;77.37;;;38.10;;
30723;SDS011;17473;52.286;20.930;2023-03-03T05:41:36;75.93;;;36.37;;
30723;SDS011;17473;52.286;20.930;2023-03-03T05:44:04;79.17;;;38.03;;
30723;SDS011;17473;52.286;20.930;2023-03-03T05:46:31;73.53;;;37.90;;
30723;SDS011;17473;52.286;20.930;2023-03-03T05:48:58;79.03;;;38.60;;
30723;SDS011;17473;52.286;20.930;2023-03-03T05:51:26;85.10;;;39.17;;
30723;SDS011;17473;52.286;20.930;2023-03-03T05:53:53;89.77;;;41.30;;
30723;SDS011;17473;52.286;20.930;2023-03-03T05:56:21;84.97;;;40.77;;
30723;SDS011;17473;52.286;20.930;2023-03-03T05:58:48;85.43;;;41.53;;
30723;SDS011;17473;52.286;20.930;2023-03-03T06:01:16;88.90;;;40.20;;
30723;SDS011;17473;52.286;20.930;2023-03-03T06:03:43;93.17;;;41.63;;
30723;SDS011;17473;52.286;20.930;2023-03-03T06:06:10;84.60;;;41.07;;
30723;SDS011;17473;52.286;20.930;2023-03-03T06:08:39;91.30;;;42.00;;
30723;SDS011;17473;52.286;20.930;2023-03-03T06:11:06;94.53;;;42.17;;
30723;SDS011;17473;52.286;20.930;2023-03-03T06:13:33;97.17;;;43.33;;
30723;SDS011;17473;52.286;20.930;2023-03-03T06:16:00;97.63;;;43.70;;
30723;SDS011;17473;52.286;20.930;2023-03-03T06:18:28;92.67;;;42.23;;
30723;SDS011;17473;52.286;20.930;2023-03-03T06:20:55;94.53;;;43.23;;
30723;SDS011;17473;52.286;20.930;2023-03-03T06:23:22;95.63;;;43.20;;
30723;SDS011;17473;52.286;20.930;2023-03-03T06:25:49;98.07;;;43.17;;
30723;SDS011;17473;52.286;20.930;2023-03-03T06:28:16;93.00;;;43.00;;
30723;SDS011;17473;52.286;20.930;2023-03-03T06:30:43;93.83;;;41.80;;
30723;SDS011;17473;52.286;20.930;2023-03-03T06:33:11;93.57;;;41.73;;
30723;SDS011;17473;52.286;20.930;2023-03-03T06:35:38;86.10;;;38.90;;
30723;SDS011;17473;52.286;20.930;2023-03-03T06:38:05;88.37;;;39.60;;
30723;SDS011;17473;52.286;20.930;2023-03-03T06:40:32;84.37;;;39.43;;
30723;SDS011;17473;52.286;20.930;2023-03-03T06:42:59;78.13;;;36.37;;
30723;SDS011;17473;52.286;20.930;2023-03-03T06:45:28;89.17;;;39.03;;
30723;SDS011;17473;52.286;20.930;2023-03-03T06:47:55;85.67;;;37.73;;
30723;SDS011;17473;52.286;20.930;2023-03-03T06:50:23;72.80;;;34.53;;
30723;SDS011;17473;52.286;20.930;2023-03-03T06:52:50;70.10;;;34.27;;
30723;SDS011;17473;52.286;20.930;2023-03-03T06:55:39;76.77;;;34.53;;
30723;SDS011;17473;52.286;20.930;2023-03-03T06:58:11;68.60;;;31.97;;
30723;SDS011;17473;52.286;20.930;2023-03-03T07:00:43;63.03;;;31.23;;
30723;SDS011;17473;52.286;20.930;2023-03-03T07:03:21;63.63;;;29.20;;
30723;SDS011;17473;52.286;20.930;2023-03-03T07:05:52;64.23;;;29.20;;
30723;SDS011;17473;52.286;20.930;2023-03-03T07:08:21;58.07;;;27.67;;
30723;SDS011;17473;52.286;20.930;2023-03-03T07:10:50;59.57;;;28.67;;
30723;SDS011;17473;52.286;20.930;2023-03-03T07:13:20;58.63;;;26.93;;
30723;SDS011;17473;52.286;20.930;2023-03-03T07:15:54;57.87;;;28.97;;
30723;SDS011;17473;52.286;20.930;2023-03-03T07:21:14;57.07;;;28.03;;
30723;SDS011;17473;52.286;20.930;2023-03-03T07:23:47;62.23;;;27.80;;
30723;SDS011;17473;52.286;20.930;2023-03-03T07:26:18;55.83;;;27.20;;
30723;SDS011;17473;52.286;20.930;2023-03-03T07:31:56;58.50;;;26.03;;
30723;SDS011;17473;52.286;20.930;2023-03-03T07:34:35;54.53;;;26.73;;
30723;SDS011;17473;52.286;20.930;2023-03-03T07:37:09;54.80;;;26.33;;
30723;SDS011;17473;52.286;20.930;2023-03-03T07:39:44;48.60;;;24.80;;
30723;SDS011;17473;52.286;20.930;2023-03-03T07:42:22;57.13;;;26.43;;
30723;SDS011;17473;52.286;20.930;2023-03-03T07:50:38;60.00;;;26.10;;
30723;SDS011;17473;52.286;20.930;2023-03-03T07:53:26;59.60;;;28.10;;
30723;SDS011;17473;52.286;20.930;2023-03-03T07:56:00;60.80;;;27.87;;
30723;SDS011;17473;52.286;20.930;2023-03-03T07:58:36;55.63;;;27.37;;
30723;SDS011;17473;52.286;20.930;2023-03-03T08:07:16;59.67;;;25.67;;
30723;SDS011;17473;52.286;20.930;2023-03-03T08:09:47;56.77;;;27.13;;
30723;SDS011;17473;52.286;20.930;2023-03-03T08:15:21;58.83;;;27.30;;
30723;SDS011;17473;52.286;20.930;2023-03-03T08:17:53;57.40;;;27.53;;
30723;SDS011;17473;52.286;20.930;2023-03-03T08:23:09;52.37;;;25.93;;
30723;SDS011;17473;52.286;20.930;2023-03-03T08:25:37;55.17;;;25.57;;
30723;SDS011;17473;52.286;20.930;2023-03-03T08:28:04;55.30;;;25.87;;
30723;SDS011;17473;52.286;20.930;2023-03-03T08:30:31;55.07;;;26.17;;
30723;SDS011;17473;52.286;20.930;2023-03-03T08:32:59;56.07;;;25.73;;
30723;SDS011;17473;52.286;20.930;2023-03-03T08:35:26;52.63;;;25.93;;
30723;SDS011;17473;52.286;20.930;2023-03-03T08:37:54;55.73;;;25.13;;
30723;SDS011;17473;52.286;20.930;2023-03-03T08:40:21;60.40;;;25.43;;
30723;SDS011;17473;52.286;20.930;2023-03-03T08:42:48;52.77;;;23.97;;
30723;SDS011;17473;52.286;20.930;2023-03-03T08:45:15;48.53;;;24.40;;
30723;SDS011;17473;52.286;20.930;2023-03-03T08:47:43;49.70;;;24.80;;
30723;SDS011;17473;52.286;20.930;2023-03-03T08:50:11;47.63;;;24.20;;
30723;SDS011;17473;52.286;20.930;2023-03-03T08:52:39;53.73;;;24.83;;
30723;SDS011;17473;52.286;20.930;2023-03-03T08:55:06;54.90;;;26.40;;
30723;SDS011;17473;52.286;20.930;2023-03-03T08:57:34;51.23;;;23.30;;
30723;SDS011;17473;52.286;20.930;2023-03-03T09:00:01;50.60;;;24.43;;
30723;SDS011;17473;52.286;20.930;2023-03-03T09:02:29;49.77;;;23.17;;
30723;SDS011;17473;52.286;20.930;2023-03-03T09:04:56;47.13;;;22.27;;
30723;SDS011;17473;52.286;20.930;2023-03-03T09:07:23;44.10;;;21.37;;
30723;SDS011;17473;52.286;20.930;2023-03-03T09:09:50;44.37;;;21.53;;
30723;SDS011;17473;52.286;20.930;2023-03-03T09:12:26;43.47;;;22.50;;
30723;SDS011;17473;52.286;20.930;2023-03-03T09:14:59;44.33;;;21.53;;
30723;SDS011;17473;52.286;20.930;2023-03-03T09:17:40;42.37;;;21.70;;
30723;SDS011;17473;52.286;20.930;2023-03-03T09:20:42;48.30;;;22.73;;
30723;SDS011;17473;52.286;20.930;2023-03-03T09:28:57;42.43;;;21.77;;
30723;SDS011;17473;52.286;20.930;2023-03-03T09:31:41;45.13;;;21.43;;
30723;SDS011;17473;52.286;20.930;2023-03-03T09:34:20;45.60;;;21.07;;
30723;SDS011;17473;52.286;20.930;2023-03-03T09:36:56;42.43;;;21.20;;
30723;SDS011;17473;52.286;20.930;2023-03-03T09:39:25;48.53;;;22.87;;
30723;SDS011;17473;52.286;20.930;2023-03-03T09:45:04;43.60;;;21.03;;
30723;SDS011;17473;52.286;20.930;2023-03-03T09:50:34;41.23;;;21.20;;
30723;SDS011;17473;52.286;20.930;2023-03-03T09:57:14;39.53;;;19.33;;
30723;SDS011;17473;52.286;20.930;2023-03-03T09:59:56;35.50;;;19.53;;
30723;SDS011;17473;52.286;20.930;2023-03-03T10:02:50;44.90;;;19.97;;
30723;SDS011;17473;52.286;20.930;2023-03-03T10:05:41;41.83;;;20.60;;
30723;SDS011;17473;52.286;20.930;2023-03-03T10:13:53;36.90;;;20.30;;
30723;SDS011;17473;52.286;20.930;2023-03-03T10:17:31;40.37;;;21.20;;
30723;SDS011;17473;52.286;20.930;2023-03-03T10:23:18;39.60;;;20.23;;
30723;SDS011;17473;52.286;20.930;2023-03-03T10:38:29;39.90;;;18.17;;
30723;SDS011;17473;52.286;20.930;2023-03-03T10:44:22;35.53;;;17.87;;
30723;SDS011;17473;52.286;20.930;2023-03-03T10:47:21;38.60;;;17.60;;
30723;SDS011;17473;52.286;20.930;2023-03-03T10:50:20;43.50;;;18.40;;
30723;SDS011;17473;52.286;20.930;2023-03-03T10:53:21;34.37;;;18.10;;
30723;SDS011;17473;52.286;20.930;2023-03-03T11:01:39;38.83;;;18.30;;
30723;SDS011;17473;52.286;20.930;2023-03-03T11:16:43;43.03;;;20.53;;
30723;SDS011;17473;52.286;20.930;2023-03-03T11:30:34;41.87;;;20.93;;
30723;SDS011;17473;52.286;20.930;2023-03-03T11:37:13;54.90;;;24.47;;
30723;SDS011;17473;52.286;20.930;2023-03-03T11:40:13;44.30;;;22.10;;
30723;SDS011;17473;52.286;20.930;2023-03-03T11:46:25;40.17;;;21.40;;
30723;SDS011;17473;52.286;20.930;2023-03-03T11:55:35;46.93;;;22.03;;
30723;SDS011;17473;52.286;20.930;2023-03-03T11:58:24;45.10;;;20.70;;
30723;SDS011;17473;52.286;20.930;2023-03-03T12:01:22;38.67;;;21.37;;
30723;SDS011;17473;52.286;20.930;2023-03-03T12:04:12;39.43;;;20.50;;
30723;SDS011;17473;52.286;20.930;2023-03-03T12:09:59;42.50;;;20.77;;
30723;SDS011;17473;52.286;20.930;2023-03-03T12:12:39;45.03;;;23.03;;
30723;SDS011;17473;52.286;20.930;2023-03-03T12:15:26;51.63;;;22.03;;
30723;SDS011;17473;52.286;20.930;2023-03-03T12:27:08;41.00;;;20.03;;
30723;SDS011;17473;52.286;20.930;2023-03-03T12:35:25;40.03;;;20.80;;
30723;SDS011;17473;52.286;20.930;2023-03-03T12:41:19;38.43;;;19.53;;
30723;SDS011;17473;52.286;20.930;2023-03-03T12:49:37;42.80;;;20.63;;
30723;SDS011;17473;52.286;20.930;2023-03-03T12:52:45;41.77;;;21.00;;
30723;SDS011;17473;52.286;20.930;2023-03-03T12:55:30;37.23;;;20.17;;
30723;SDS011;17473;52.286;20.930;2023-03-03T13:01:09;40.83;;;21.03;;
30723;SDS011;17473;52.286;20.930;2023-03-03T13:16:11;42.93;;;20.30;;
30723;SDS011;17473;52.286;20.930;2023-03-03T13:18:54;40.60;;;20.07;;
30723;SDS011;17473;52.286;20.930;2023-03-03T13:21:35;49.27;;;19.07;;
30723;SDS011;17473;52.286;20.930;2023-03-03T13:27:40;46.40;;;19.93;;
30723;SDS011;17473;52.286;20.930;2023-03-03T13:30:14;46.53;;;20.43;;
30723;SDS011;17473;52.286;20.930;2023-03-03T13:33:07;40.27;;;20.27;;
30723;SDS011;17473;52.286;20.930;2023-03-03T13:35:43;42.13;;;19.70;;
30723;SDS011;17473;52.286;20.930;2023-03-03T13:38:36;46.03;;;20.03;;
30723;SDS011;17473;52.286;20.930;2023-03-03T13:41:30;42.93;;;20.23;;
30723;SDS011;17473;52.286;20.930;2023-03-03T13:44:19;38.80;;;19.43;;
30723;SDS011;17473;52.286;20.930;2023-03-03T13:47:02;41.57;;;21.80;;
30723;SDS011;17473;52.286;20.930;2023-03-03T13:52:31;41.27;;;20.43;;
30723;SDS011;17473;52.286;20.930;2023-03-03T13:55:13;45.77;;;19.90;;
30723;SDS011;17473;52.286;20.930;2023-03-03T14:01:22;38.63;;;17.70;;
30723;SDS011;17473;52.286;20.930;2023-03-03T14:04:04;39.83;;;19.23;;
30723;SDS011;17473;52.286;20.930;2023-03-03T14:07:35;40.67;;;18.23;;
30723;SDS011;17473;52.286;20.930;2023-03-03T14:11:06;38.83;;;17.87;;
30723;SDS011;17473;52.286;20.930;2023-03-03T14:14:44;39.50;;;17.87;;
30723;SDS011;17473;52.286;20.930;2023-03-03T14:21:13;38.67;;;18.20;;
30723;SDS011;17473;52.286;20.930;2023-03-03T14:26:43;38.50;;;17.47;;
30723;SDS011;17473;52.286;20.930;2023-03-03T14:31:53;42.50;;;17.17;;
30723;SDS011;17473;52.286;20.930;2023-03-03T14:34:39;43.33;;;18.40;;
30723;SDS011;17473;52.286;20.930;2023-03-03T14:37:26;43.50;;;19.03;;
30723;SDS011;17473;52.286;20.930;2023-03-03T14:40:19;37.37;;;18.00;;
30723;SDS011;17473;52.286;20.930;2023-03-03T14:48:17;29.63;;;16.23;;
30723;SDS011;17473;52.286;20.930;2023-03-03T14:50:58;37.37;;;17.53;;
30723;SDS011;17473;52.286;20.930;2023-03-03T14:53:49;29.67;;;14.73;;
30723;SDS011;17473;52.286;20.930;2023-03-03T14:56:21;33.70;;;16.20;;
30723;SDS011;17473;52.286;20.930;2023-03-03T15:04:44;32.97;;;15.70;;
30723;SDS011;17473;52.286;20.930;2023-03-03T15:10:05;30.67;;;15.00;;
30723;SDS011;17473;52.286;20.930;2023-03-03T15:12:34;35.97;;;15.73;;
30723;SDS011;17473;52.286;20.930;2023-03-03T15:36:07;28.20;;;13.70;;
30723;SDS011;17473;52.286;20.930;2023-03-03T15:41:35;25.33;;;12.97;;
30723;SDS011;17473;52.286;20.930;2023-03-03T15:44:13;26.50;;;13.63;;
30723;SDS011;17473;52.286;20.930;2023-03-03T15:50:23;24.67;;;13.17;;
30723;SDS011;17473;52.286;20.930;2023-03-03T15:56:03;26.73;;;13.20;;
30723;SDS011;17473;52.286;20.930;2023-03-03T15:59:04;27.93;;;13.23;;
30723;SDS011;17473;52.286;20.930;2023-03-03T16:04:46;27.63;;;13.37;;
30723;SDS011;17473;52.286;20.930;2023-03-03T16:10:27;25.87;;;12.30;;
30723;SDS011;17473;52.286;20.930;2023-03-03T16:22:33;27.23;;;12.90;;
30723;SDS011;17473;52.286;20.930;2023-03-03T16:35:18;28.77;;;15.40;;
30723;SDS011;17473;52.286;20.930;2023-03-03T16:38:16;26.33;;;14.17;;
30723;SDS011;17473;52.286;20.930;2023-03-03T16:47:04;28.83;;;16.00;;
30723;SDS011;17473;52.286;20.930;2023-03-03T16:52:49;34.33;;;16.30;;
30723;SDS011;17473;52.286;20.930;2023-03-03T16:55:35;37.40;;;18.33;;
30723;SDS011;17473;52.286;20.930;2023-03-03T17:10:29;36.20;;;17.77;;
30723;SDS011;17473;52.286;20.930;2023-03-03T17:16:20;38.13;;;17.33;;
30723;SDS011;17473;52.286;20.930;2023-03-03T17:30:41;35.90;;;17.87;;
30723;SDS011;17473;52.286;20.930;2023-03-03T18:03:25;34.10;;;15.43;;
30723;SDS011;17473;52.286;20.930;2023-03-03T18:09:32;30.47;;;15.73;;
30723;SDS011;17473;52.286;20.930;2023-03-03T18:15:38;27.70;;;15.03;;
30723;SDS011;17473;52.286;20.930;2023-03-03T18:18:30;28.17;;;16.30;;
30723;SDS011;17473;52.286;20.930;2023-03-03T18:24:32;33.90;;;16.73;;
30723;SDS011;17473;52.286;20.930;2023-03-03T18:28:15;30.47;;;15.77;;
30723;SDS011;17473;52.286;20.930;2023-03-03T18:30:52;32.67;;;17.07;;
30723;SDS011;17473;52.286;20.930;2023-03-03T18:36:34;32.40;;;16.97;;
30723;SDS011;17473;52.286;20.930;2023-03-03T18:38:53;30.50;;;15.53;;
30723;SDS011;17473;52.286;20.930;2023-03-03T18:41:24;32.53;;;16.90;;
30723;SDS011;17473;52.286;20.930;2023-03-03T18:44:00;30.30;;;15.87;;
30723;SDS011;17473;52.286;20.930;2023-03-03T18:46:48;28.97;;;15.70;;
30723;SDS011;17473;52.286;20.930;2023-03-03T18:49:17;31.30;;;15.80;;
30723;SDS011;17473;52.286;20.930;2023-03-03T18:52:35;30.23;;;16.57;;
30723;SDS011;17473;52.286;20.930;2023-03-03T18:55:20;35.67;;;17.83;;
30723;SDS011;17473;52.286;20.930;2023-03-03T19:03:37;35.33;;;17.60;;
30723;SDS011;17473;52.286;20.930;2023-03-03T19:06:53;35.83;;;18.20;;
30723;SDS011;17473;52.286;20.930;2023-03-03T19:09:50;37.90;;;19.47;;
30723;SDS011;17473;52.286;20.930;2023-03-03T19:12:17;38.40;;;18.87;;
30723;SDS011;17473;52.286;20.930;2023-03-03T19:18:23;34.50;;;16.87;;
30723;SDS011;17473;52.286;20.930;2023-03-03T19:34:41;39.57;;;17.83;;
30723;SDS011;17473;52.286;20.930;2023-03-03T19:46:30;32.47;;;16.73;;
30723;SDS011;17473;52.286;20.930;2023-03-03T19:52:36;36.07;;;18.27;;
30723;SDS011;17473;52.286;20.930;2023-03-03T19:55:30;32.63;;;16.27;;
30723;SDS011;17473;52.286;20.930;2023-03-03T20:07:57;35.67;;;17.77;;
30723;SDS011;17473;52.286;20.930;2023-03-03T20:10:40;34.30;;;18.33;;
30723;SDS011;17473;52.286;20.930;2023-03-03T20:13:22;32.53;;;16.03;;
30723;SDS011;17473;52.286;20.930;2023-03-03T20:16:25;33.47;;;16.90;;
30723;SDS011;17473;52.286;20.930;2023-03-03T20:19:01;34.30;;;17.07;;
30723;SDS011;17473;52.286;20.930;2023-03-03T20:22:10;31.37;;;16.70;;
30723;SDS011;17473;52.286;20.930;2023-03-03T20:28:34;32.40;;;17.20;;
30723;SDS011;17473;52.286;20.930;2023-03-03T20:34:10;34.83;;;17.00;;
30723;SDS011;17473;52.286;20.930;2023-03-03T20:37:00;32.90;;;16.10;;
30723;SDS011;17473;52.286;20.930;2023-03-03T20:39:36;33.23;;;15.83;;
30723;SDS011;17473;52.286;20.930;2023-03-03T20:51:56;29.03;;;15.00;;
30723;SDS011;17473;52.286;20.930;2023-03-03T21:00:21;33.57;;;15.27;;
30723;SDS011;17473;52.286;20.930;2023-03-03T21:03:19;32.20;;;15.43;;
30723;SDS011;17473;52.286;20.930;2023-03-03T21:06:19;34.20;;;17.93;;
30723;SDS011;17473;52.286;20.930;2023-03-03T21:08:55;32.93;;;16.83;;
30723;SDS011;17473;52.286;20.930;2023-03-03T21:11:38;35.97;;;17.07;;
30723;SDS011;17473;52.286;20.930;2023-03-03T21:14:36;34.20;;;17.23;;
30723;SDS011;17473;52.286;20.930;2023-03-03T21:17:31;37.57;;;16.73;;
30723;SDS011;17473;52.286;20.930;2023-03-03T21:20:30;38.60;;;18.00;;
30723;SDS011;17473;52.286;20.930;2023-03-03T21:23:27;37.70;;;18.87;;
30723;SDS011;17473;52.286;20.930;2023-03-03T21:29:43;36.40;;;18.73;;
30723;SDS011;17473;52.286;20.930;2023-03-03T21:32:44;40.87;;;18.60;;
30723;SDS011;17473;52.286;20.930;2023-03-03T21:35:56;40.13;;;20.53;;
30723;SDS011;17473;52.286;20.930;2023-03-03T21:38:51;37.13;;;18.43;;
30723;SDS011;17473;52.286;20.930;2023-03-03T21:42:05;36.97;;;18.37;;
30723;SDS011;17473;52.286;20.930;2023-03-03T21:45:09;34.33;;;18.97;;
30723;SDS011;17473;52.286;20.930;2023-03-03T21:47:40;38.30;;;19.77;;
30723;SDS011;17473;52.286;20.930;2023-03-03T21:50:34;40.00;;;20.47;;